createdAt,value
2019-04-16T00:01:59.654Z,36.95
2019-04-16T00:04:43.943Z,35.83
2019-04-16T00:07:17.916Z,36.77
2019-04-16T00:09:55.236Z,32.17
2019-04-16T00:12:23.305Z,32.13
2019-04-16T00:14:51.372Z,35.35
2019-04-16T00:17:17.656Z,36.15
2019-04-16T00:19:43.815Z,34.50
2019-04-16T00:22:14.889Z,30.92
2019-04-16T00:24:42.554Z,33.80
2019-04-16T00:27:08.702Z,35.73
2019-04-16T00:29:34.898Z,36.45
2019-04-16T00:32:01.237Z,36.95
2019-04-16T00:34:27.407Z,33.50
2019-04-16T00:36:53.613Z,35.43
2019-04-16T00:39:24.459Z,39.40
2019-04-16T00:41:47.829Z,37.40
2019-04-16T00:44:14.979Z,37.48
2019-04-16T00:46:41.159Z,35.98
2019-04-16T00:49:07.332Z,37.17
2019-04-16T00:51:33.497Z,35.08
2019-04-16T00:53:59.686Z,37.88
2019-04-16T00:56:25.903Z,38.00
2019-04-16T00:58:53.053Z,38.48
2019-04-16T01:01:20.841Z,37.38
2019-04-16T01:03:46.992Z,41.63
2019-04-16T01:06:13.164Z,41.73
2019-04-16T01:08:53.912Z,38.88
2019-04-16T01:11:10.359Z,38.10
2019-04-16T01:13:36.521Z,39.40
2019-04-16T01:16:03.900Z,40.00
2019-04-16T01:18:30.392Z,38.90
2019-04-16T01:20:56.756Z,37.50
2019-04-16T01:23:22.906Z,37.73
2019-04-16T01:25:49.062Z,37.00
2019-04-16T01:28:22.691Z,38.67
2019-04-16T01:30:50.759Z,36.60
2019-04-16T01:33:18.813Z,38.50
2019-04-16T01:35:51.744Z,38.08
2019-04-16T01:38:19.637Z,36.30
2019-04-16T01:40:50.937Z,38.65
2019-04-16T01:43:17.226Z,42.43
2019-04-16T01:45:44.403Z,36.83
2019-04-16T01:48:10.646Z,38.85
2019-04-16T01:50:36.873Z,42.33
2019-04-16T01:53:03.035Z,39.50
2019-04-16T01:55:29.225Z,38.85
2019-04-16T01:57:55.372Z,40.75
2019-04-16T02:00:21.580Z,40.83
2019-04-16T02:02:47.758Z,39.48
2019-04-16T02:05:13.911Z,37.40
2019-04-16T02:07:40.172Z,38.13
2019-04-16T02:10:07.761Z,40.60
2019-04-16T02:12:34.302Z,41.70
2019-04-16T02:15:00.780Z,42.15
2019-04-16T02:17:27.728Z,42.83
2019-04-16T02:19:54.054Z,37.45
2019-04-16T02:22:20.195Z,40.00
2019-04-16T02:24:47.775Z,42.03
2019-04-16T02:27:14.546Z,40.15
2019-04-16T02:29:40.712Z,39.08
2019-04-16T02:32:06.921Z,37.78
2019-04-16T02:34:33.069Z,37.67
2019-04-16T02:37:02.291Z,41.50
2019-04-16T02:39:46.469Z,40.33
2019-04-16T02:41:58.228Z,37.35
2019-04-16T02:44:23.658Z,36.50
2019-04-16T02:46:49.812Z,40.35
2019-04-16T02:49:15.969Z,37.67
2019-04-16T02:51:44.031Z,34.00
2019-04-16T02:54:12.122Z,40.48
2019-04-16T02:56:52.097Z,34.48
2019-04-16T02:59:21.421Z,40.03
2019-04-16T03:02:07.146Z,33.42
2019-04-16T03:04:41.036Z,35.90
2019-04-16T03:07:08.221Z,40.38
2019-04-16T03:09:34.478Z,41.08
2019-04-16T03:12:00.648Z,39.03
2019-04-16T03:14:29.780Z,40.45
2019-04-16T03:17:02.799Z,51.10
2019-04-16T03:19:33.021Z,36.35
2019-04-16T03:22:01.936Z,37.08
2019-04-16T03:24:27.401Z,38.30
2019-04-16T03:26:53.687Z,40.40
2019-04-16T03:29:19.876Z,40.30
2019-04-16T03:31:46.034Z,35.52
2019-04-16T03:34:12.189Z,36.70
2019-04-16T03:36:38.417Z,36.10
2019-04-16T03:39:05.580Z,35.85
2019-04-16T03:41:31.808Z,40.78
2019-04-16T03:43:57.961Z,35.98
2019-04-16T03:46:24.132Z,35.05
2019-04-16T03:48:52.550Z,38.67
2019-04-16T03:51:18.346Z,36.35
2019-04-16T03:53:46.611Z,38.15
2019-04-16T03:56:12.572Z,39.33
2019-04-16T03:58:39.391Z,41.30
2019-04-16T04:01:05.599Z,41.85
2019-04-16T04:03:32.768Z,40.20
2019-04-16T04:05:58.994Z,45.70
2019-04-16T04:08:25.286Z,40.78
2019-04-16T04:10:51.974Z,38.38
2019-04-16T04:13:18.891Z,39.92
2019-04-16T04:15:45.413Z,38.60
2019-04-16T04:18:12.768Z,39.50
2019-04-16T04:20:39.341Z,46.13
2019-04-16T04:23:05.492Z,45.45
2019-04-16T04:25:35.981Z,43.10
2019-04-16T04:28:01.755Z,52.05
2019-04-16T04:30:28.912Z,47.75
2019-04-16T04:32:55.783Z,44.73
2019-04-16T04:35:22.364Z,37.28
2019-04-16T04:37:48.572Z,43.38
2019-04-16T04:40:15.869Z,49.18
2019-04-16T04:42:42.924Z,43.45
2019-04-16T04:45:10.173Z,42.85
2019-04-16T04:47:36.752Z,43.50
2019-04-16T04:50:05.990Z,41.55
2019-04-16T04:52:33.153Z,42.93
2019-04-16T04:54:59.345Z,45.45
2019-04-16T04:57:25.510Z,41.23
2019-04-16T04:59:51.664Z,38.38
2019-04-16T05:02:21.788Z,40.50
2019-04-16T05:04:52.410Z,39.70
2019-04-16T05:07:19.532Z,40.28
2019-04-16T05:09:45.764Z,36.15
2019-04-16T05:12:11.950Z,35.83
2019-04-16T05:14:40.056Z,33.95
2019-04-16T05:17:06.507Z,37.70
2019-04-16T05:19:33.692Z,35.90
2019-04-16T05:21:59.852Z,36.88
2019-04-16T05:24:29.146Z,34.10
2019-04-16T05:26:56.371Z,34.83
2019-04-16T05:29:22.675Z,39.08
2019-04-16T05:31:48.833Z,40.48
2019-04-16T05:34:17.623Z,41.70
2019-04-16T05:36:46.247Z,31.45
2019-04-16T05:39:11.148Z,37.88
2019-04-16T05:41:37.439Z,33.18
2019-04-16T05:44:03.692Z,38.10
2019-04-16T05:46:29.926Z,33.02
2019-04-16T05:48:56.120Z,32.38
2019-04-16T05:51:22.268Z,29.85
2019-04-16T05:53:50.332Z,34.75
2019-04-16T05:56:24.965Z,32.45
2019-04-16T05:58:51.497Z,29.90
2019-04-16T06:01:19.714Z,29.72
2019-04-16T06:03:46.073Z,28.23
2019-04-16T06:06:12.278Z,29.32
2019-04-16T06:08:41.578Z,28.50
2019-04-16T06:11:06.548Z,31.85
2019-04-16T06:13:44.538Z,34.85
2019-04-16T06:16:14.596Z,33.40
2019-04-16T06:18:57.323Z,31.42
2019-04-16T06:21:41.872Z,31.73
2019-04-16T06:24:15.759Z,35.20
2019-04-16T06:26:44.430Z,33.10
2019-04-16T06:29:30.289Z,33.65
2019-04-16T06:32:14.856Z,33.95
2019-04-16T06:34:42.971Z,31.12
2019-04-16T06:37:20.996Z,30.32
2019-04-16T06:40:00.599Z,30.45
2019-04-16T06:42:30.300Z,29.72
2019-04-16T06:44:57.860Z,26.90
2019-04-16T06:47:28.831Z,27.77
2019-04-16T06:50:11.827Z,32.80
2019-04-16T06:52:39.886Z,25.37
2019-04-16T06:55:10.717Z,26.87
2019-04-16T06:57:55.285Z,23.47
2019-04-16T07:00:38.358Z,22.20
2019-04-16T07:03:25.787Z,24.60
2019-04-16T07:06:04.045Z,24.18
2019-04-16T07:08:52.015Z,22.42
2019-04-16T07:11:20.075Z,24.35
2019-04-16T07:13:46.229Z,24.63
2019-04-16T07:16:12.418Z,25.00
2019-04-16T07:18:39.288Z,24.85
2019-04-16T07:21:05.589Z,24.82
2019-04-16T07:23:33.199Z,25.37
2019-04-16T07:26:03.063Z,22.45
2019-04-16T07:28:32.402Z,25.17
2019-04-16T07:31:13.253Z,23.02
2019-04-16T07:33:47.728Z,26.35
2019-04-16T07:36:18.566Z,25.32
2019-04-16T07:38:49.431Z,27.25
2019-04-16T07:41:33.993Z,24.75
2019-04-16T07:44:10.496Z,23.07
2019-04-16T07:46:37.807Z,25.08
2019-04-16T07:49:26.330Z,27.77
2019-04-16T07:52:06.971Z,26.27
2019-04-16T07:54:48.453Z,23.62
2019-04-16T07:57:14.693Z,23.52
2019-04-16T07:59:40.852Z,25.25
2019-04-16T08:02:07.130Z,23.18
2019-04-16T08:04:35.639Z,23.15
2019-04-16T08:07:01.350Z,22.60
2019-04-16T08:09:29.828Z,22.80
2019-04-16T08:11:55.730Z,22.35
2019-04-16T08:14:22.914Z,25.30
2019-04-16T08:16:50.257Z,24.30
2019-04-16T08:19:16.436Z,22.30
2019-04-16T08:21:44.281Z,23.75
2019-04-16T08:24:15.398Z,23.02
2019-04-16T08:26:44.398Z,23.55
2019-04-16T08:29:09.615Z,22.90
2019-04-16T08:31:40.877Z,23.00
2019-04-16T08:34:09.587Z,22.93
2019-04-16T08:36:36.763Z,22.50
2019-04-16T08:39:06.646Z,22.32
2019-04-16T08:41:33.234Z,23.95
2019-04-16T08:43:59.688Z,23.47
2019-04-16T08:46:28.312Z,24.10
2019-04-16T08:48:54.762Z,23.15
2019-04-16T08:51:30.104Z,25.10
2019-04-16T08:53:48.949Z,24.02
2019-04-16T08:56:15.140Z,18.87
2019-04-16T08:58:41.301Z,21.35
2019-04-16T09:01:09.064Z,20.85
2019-04-16T09:03:35.301Z,19.15
2019-04-16T09:06:03.940Z,25.55
2019-04-16T09:08:37.088Z,17.12
2019-04-16T09:11:04.433Z,18.12
2019-04-16T09:13:32.921Z,23.75
2019-04-16T09:16:00.872Z,20.40
2019-04-16T09:18:45.498Z,22.48
2019-04-16T09:21:11.763Z,19.00
2019-04-16T09:23:38.174Z,21.93
2019-04-16T09:26:23.794Z,21.27
2019-04-16T09:28:52.120Z,19.35
2019-04-16T09:31:32.091Z,18.60
2019-04-16T09:34:05.332Z,18.87
2019-04-16T09:36:35.970Z,20.50
2019-04-16T09:39:08.669Z,22.98
2019-04-16T09:41:36.719Z,21.27
2019-04-16T09:44:02.872Z,22.48
2019-04-16T09:46:49.810Z,19.80
2019-04-16T09:48:57.586Z,21.62
2019-04-16T09:51:25.958Z,21.07
2019-04-16T09:53:51.805Z,14.20
2019-04-16T09:56:30.619Z,16.07
2019-04-16T09:59:00.295Z,13.93
2019-04-16T10:01:37.494Z,13.43
2019-04-16T10:04:06.540Z,16.30
2019-04-16T10:06:32.726Z,14.85
2019-04-16T10:08:58.904Z,13.85
2019-04-16T10:11:25.069Z,12.45
2019-04-16T10:13:51.226Z,12.68
2019-04-16T10:16:19.300Z,13.58
2019-04-16T10:18:45.557Z,12.63
2019-04-16T10:21:11.721Z,12.35
2019-04-16T10:23:45.655Z,12.43
2019-04-16T10:26:11.827Z,11.15
2019-04-16T10:28:39.964Z,13.13
2019-04-16T10:31:07.274Z,13.05
2019-04-16T10:33:33.456Z,13.03
2019-04-16T10:36:01.024Z,13.05
2019-04-16T10:38:38.165Z,14.47
2019-04-16T10:41:06.371Z,10.88
2019-04-16T10:43:44.776Z,10.43
2019-04-16T10:46:28.887Z,12.10
2019-04-16T10:49:13.644Z,12.80
2019-04-16T10:51:58.413Z,11.65
2019-04-16T10:54:41.249Z,14.80
2019-04-16T10:57:26.216Z,11.90
2019-04-16T10:59:54.296Z,12.82
2019-04-16T11:02:31.138Z,12.53
2019-04-16T11:05:02.096Z,12.63
2019-04-16T11:07:29.351Z,12.45
2019-04-16T11:09:55.601Z,11.00
2019-04-16T11:12:21.780Z,10.63
2019-04-16T11:14:47.919Z,11.97
2019-04-16T11:17:14.441Z,11.73
2019-04-16T11:19:42.564Z,11.20
2019-04-16T11:22:08.842Z,10.80
2019-04-16T11:24:35.334Z,10.65
2019-04-16T11:27:01.580Z,9.95
2019-04-16T11:29:27.756Z,9.93
2019-04-16T11:31:53.910Z,12.33
2019-04-16T11:34:20.189Z,10.68
2019-04-16T11:36:47.384Z,10.45
2019-04-16T11:39:13.549Z,11.30
2019-04-16T11:41:39.880Z,10.75
2019-04-16T11:44:15.250Z,13.88
2019-04-16T11:46:34.273Z,10.80
2019-04-16T11:49:00.732Z,11.38
2019-04-16T11:51:26.894Z,15.08
2019-04-16T11:53:53.075Z,10.50
2019-04-16T11:56:22.667Z,11.25
2019-04-16T11:58:49.108Z,10.18
2019-04-16T12:01:17.400Z,14.13
2019-04-16T12:03:45.436Z,15.75
2019-04-16T12:06:30.193Z,11.95
2019-04-16T12:09:14.142Z,10.60
2019-04-16T12:11:42.266Z,12.45
2019-04-16T12:14:32.430Z,11.43
2019-04-16T12:16:59.264Z,11.75
2019-04-16T12:19:30.256Z,11.68
2019-04-16T12:22:14.857Z,11.40
2019-04-16T12:24:46.051Z,13.32
2019-04-16T12:27:16.919Z,12.47
2019-04-16T12:30:02.468Z,15.20
2019-04-16T12:32:33.747Z,12.47
2019-04-16T12:35:04.549Z,14.18
2019-04-16T12:37:48.806Z,12.15
2019-04-16T12:40:20.019Z,12.73
2019-04-16T12:42:49.960Z,13.55
2019-04-16T12:45:33.180Z,10.00
2019-04-16T12:48:01.699Z,12.75
2019-04-16T12:50:35.328Z,10.95
2019-04-16T12:53:03.387Z,12.73
2019-04-16T12:55:37.321Z,11.25
2019-04-16T12:58:08.240Z,15.43
2019-04-16T13:00:39.177Z,11.80
2019-04-16T13:03:19.439Z,11.93
2019-04-16T13:06:02.846Z,14.05
2019-04-16T13:08:31.952Z,14.43
2019-04-16T13:11:00.615Z,14.58
2019-04-16T13:13:37.705Z,14.83
2019-04-16T13:16:05.748Z,14.43
2019-04-16T13:18:45.544Z,16.32
2019-04-16T13:21:13.617Z,14.80
2019-04-16T13:23:41.754Z,16.20
2019-04-16T13:26:13.424Z,16.25
2019-04-16T13:28:40.106Z,16.10
2019-04-16T13:31:07.255Z,16.45
2019-04-16T13:33:34.445Z,19.02
2019-04-16T13:36:00.604Z,15.88
2019-04-16T13:38:28.675Z,16.30
2019-04-16T13:40:54.853Z,16.90
2019-04-16T13:43:26.550Z,13.68
2019-04-16T13:45:57.943Z,16.40
2019-04-16T13:48:27.277Z,15.58
2019-04-16T13:50:55.475Z,14.73
2019-04-16T13:53:29.814Z,15.32
2019-04-16T13:55:58.075Z,18.98
2019-04-16T13:58:29.088Z,15.75
2019-04-16T14:00:57.143Z,17.67
2019-04-16T14:03:24.040Z,16.75
2019-04-16T14:05:51.088Z,17.15
2019-04-16T14:08:17.269Z,19.57
2019-04-16T14:10:43.488Z,17.95
2019-04-16T14:13:13.502Z,19.17
2019-04-16T14:15:40.357Z,18.00
2019-04-16T14:18:06.343Z,17.35
2019-04-16T14:20:32.593Z,18.77
2019-04-16T14:22:58.871Z,20.68
2019-04-16T14:25:25.072Z,20.37
2019-04-16T14:27:55.045Z,20.10
2019-04-16T14:30:21.224Z,17.90
2019-04-16T14:32:47.393Z,21.35
2019-04-16T14:35:15.452Z,17.23
2019-04-16T14:37:43.102Z,22.55
2019-04-16T14:40:11.853Z,18.80
2019-04-16T14:42:38.024Z,18.92
2019-04-16T14:45:10.315Z,20.50
2019-04-16T14:47:38.055Z,21.35
2019-04-16T14:50:04.960Z,20.75
2019-04-16T14:52:31.228Z,21.77
2019-04-16T14:55:02.059Z,20.43
2019-04-16T14:57:28.335Z,24.15
2019-04-16T14:59:57.451Z,20.27
2019-04-16T15:02:29.609Z,20.95
2019-04-16T15:05:03.521Z,17.07
2019-04-16T15:10:15.480Z,18.30
2019-04-16T15:12:49.400Z,16.70
2019-04-16T15:15:17.564Z,19.02
2019-04-16T15:17:54.595Z,22.70
2019-04-16T15:20:22.663Z,17.62
2019-04-16T15:23:05.936Z,15.25
2019-04-16T15:25:37.808Z,17.10
2019-04-16T15:28:05.864Z,15.60
2019-04-16T15:30:33.999Z,14.80
2019-04-16T15:33:18.110Z,17.05
2019-04-16T15:36:01.160Z,17.70
2019-04-16T15:38:44.085Z,15.98
2019-04-16T15:41:18.025Z,15.50
2019-04-16T15:43:50.422Z,17.60
2019-04-16T15:46:35.145Z,15.00
2019-04-16T15:49:02.500Z,16.57
2019-04-16T15:51:50.593Z,18.73
2019-04-16T15:54:33.367Z,18.00
2019-04-16T15:57:08.480Z,17.05
2019-04-16T15:59:46.053Z,16.42
2019-04-16T16:02:16.641Z,17.77
2019-04-16T16:04:47.431Z,16.00
2019-04-16T16:07:13.610Z,20.23
2019-04-16T16:09:59.820Z,21.23
2019-04-16T16:12:26.999Z,19.40
2019-04-16T16:14:53.178Z,19.82
2019-04-16T16:17:19.424Z,18.30
2019-04-16T16:19:47.477Z,18.82
2019-04-16T16:22:13.625Z,20.45
2019-04-16T16:24:42.346Z,17.70
2019-04-16T16:27:08.100Z,17.42
2019-04-16T16:29:35.263Z,19.52
2019-04-16T16:32:01.471Z,18.35
2019-04-16T16:34:27.656Z,18.90
2019-04-16T16:36:54.395Z,18.10
2019-04-16T16:39:20.582Z,19.70
2019-04-16T16:41:47.102Z,18.25
2019-04-16T16:44:13.438Z,21.45
2019-04-16T16:46:56.157Z,18.85
2019-04-16T16:49:10.644Z,18.82
2019-04-16T16:51:38.693Z,17.52
2019-04-16T16:54:06.752Z,18.50
2019-04-16T16:56:46.588Z,20.27
2019-04-16T16:59:24.503Z,18.37
2019-04-16T17:01:58.313Z,16.73
2019-04-16T17:04:26.385Z,16.77
2019-04-16T17:06:52.579Z,18.50
2019-04-16T17:09:30.396Z,20.30
2019-04-16T17:11:57.601Z,18.75
2019-04-16T17:14:23.800Z,21.90
2019-04-16T17:16:49.974Z,20.75
2019-04-16T17:19:16.126Z,23.45
2019-04-16T17:21:42.535Z,17.23
2019-04-16T17:24:08.732Z,18.52
2019-04-16T17:26:34.908Z,18.77
2019-04-16T17:29:01.062Z,17.57
2019-04-16T17:31:27.221Z,18.48
2019-04-16T17:33:53.938Z,16.82
2019-04-16T17:36:20.232Z,15.60
2019-04-16T17:38:46.403Z,23.20
2019-04-16T17:41:14.463Z,15.83
2019-04-16T17:44:00.465Z,15.68
2019-04-16T17:46:24.905Z,17.27
2019-04-16T17:48:58.682Z,17.52
2019-04-16T17:53:57.409Z,14.80
2019-04-16T17:56:41.756Z,15.13
2019-04-16T17:59:29.099Z,14.80
2019-04-16T18:01:57.232Z,13.25
2019-04-16T18:04:37.229Z,17.25
2019-04-16T18:07:14.203Z,12.20
2019-04-16T18:10:00.407Z,12.78
2019-04-16T18:12:43.335Z,14.40
2019-04-16T18:15:11.600Z,12.13
2019-04-16T18:17:47.007Z,15.78
2019-04-16T18:20:24.625Z,16.00
2019-04-16T18:23:07.528Z,13.33
2019-04-16T18:25:56.725Z,21.27
2019-04-16T18:28:30.495Z,17.07
2019-04-16T18:30:58.648Z,15.93
2019-04-16T18:33:32.799Z,13.85
2019-04-16T18:36:03.979Z,16.02
2019-04-16T18:38:41.161Z,15.80
2019-04-16T18:41:09.236Z,13.48
2019-04-16T18:43:43.151Z,13.18
2019-04-16T18:46:15.345Z,20.90
2019-04-16T18:48:54.429Z,13.65
2019-04-16T18:51:23.776Z,15.23
2019-04-16T18:53:48.342Z,11.20
2019-04-16T18:56:14.484Z,14.30
2019-04-16T18:58:41.853Z,14.35
2019-04-16T19:01:12.157Z,13.90
2019-04-16T19:03:38.313Z,11.75
2019-04-16T19:06:04.589Z,12.30
2019-04-16T19:08:41.505Z,14.23
2019-04-16T19:10:58.863Z,17.17
2019-04-16T19:13:25.839Z,12.20
2019-04-16T19:15:52.403Z,14.43
2019-04-16T19:18:20.180Z,15.00
2019-04-16T19:20:51.513Z,14.50
2019-04-16T19:23:14.695Z,14.73
2019-04-16T19:25:40.871Z,14.90
2019-04-16T19:28:07.099Z,11.15
2019-04-16T19:30:33.320Z,15.53
2019-04-16T19:33:00.795Z,16.12
2019-04-16T19:35:29.596Z,13.98
2019-04-16T19:37:55.752Z,13.48
2019-04-16T19:40:23.633Z,15.05
2019-04-16T19:42:49.868Z,14.73
2019-04-16T19:45:16.017Z,14.23
2019-04-16T19:47:42.196Z,19.85
2019-04-16T19:50:08.508Z,15.05
2019-04-16T19:52:34.687Z,23.77
2019-04-16T19:55:02.196Z,15.18
2019-04-16T19:57:28.343Z,14.13
2019-04-16T19:59:54.547Z,14.75
2019-04-16T20:02:20.791Z,15.23
2019-04-16T20:04:50.582Z,17.57
2019-04-16T20:07:15.124Z,12.35
2019-04-16T20:09:41.315Z,13.98
2019-04-16T20:12:07.508Z,21.12
2019-04-16T20:14:36.273Z,16.55
2019-04-16T20:17:01.732Z,12.85
2019-04-16T20:19:27.963Z,15.45
2019-04-16T20:21:54.140Z,14.55
2019-04-16T20:24:20.287Z,14.33
2019-04-16T20:26:46.457Z,16.20
2019-04-16T20:29:12.612Z,14.80
2019-04-16T20:31:38.903Z,16.07
2019-04-16T20:34:05.055Z,17.62
2019-04-16T20:36:31.208Z,21.75
2019-04-16T20:38:57.496Z,13.55
2019-04-16T20:41:23.664Z,12.15
2019-04-16T20:43:51.799Z,11.10
2019-04-16T20:46:19.069Z,12.37
2019-04-16T20:48:45.766Z,10.85
2019-04-16T20:51:11.955Z,12.63
2019-04-16T20:53:40.795Z,12.82
2019-04-16T20:56:10.028Z,13.15
2019-04-16T20:58:34.271Z,10.63
2019-04-16T21:01:01.663Z,11.57
2019-04-16T21:03:30.863Z,12.13
2019-04-16T21:05:58.900Z,12.33
2019-04-16T21:08:25.213Z,13.95
2019-04-16T21:10:51.570Z,12.73
2019-04-16T21:13:17.790Z,11.30
2019-04-16T21:15:44.043Z,10.82
2019-04-16T21:18:12.067Z,14.40
2019-04-16T21:20:38.264Z,13.30
2019-04-16T21:23:04.451Z,14.40
2019-04-16T21:25:31.594Z,13.70
2019-04-16T21:27:59.783Z,12.50
2019-04-16T21:30:26.024Z,11.28
2019-04-16T21:32:54.077Z,12.88
2019-04-16T21:35:22.175Z,11.30
2019-04-16T21:37:58.842Z,16.17
2019-04-16T21:40:25.048Z,13.08
2019-04-16T21:42:51.198Z,13.25
2019-04-16T21:45:17.379Z,11.65
2019-04-16T21:47:43.565Z,15.65
2019-04-16T21:50:09.700Z,16.75
2019-04-16T21:52:35.852Z,15.25
2019-04-16T21:55:05.072Z,12.40
2019-04-16T21:57:31.368Z,11.30
2019-04-16T21:59:58.936Z,15.65
2019-04-16T22:02:27.443Z,13.03
2019-04-16T22:04:53.599Z,12.47
2019-04-16T22:07:24.197Z,12.95
2019-04-16T22:09:47.833Z,13.80
2019-04-16T22:12:15.463Z,15.15
2019-04-16T22:14:42.319Z,15.38
2019-04-16T22:17:08.579Z,12.68
2019-04-16T22:19:34.851Z,15.03
2019-04-16T22:22:01.135Z,13.22
2019-04-16T22:24:27.313Z,14.03
2019-04-16T22:26:53.457Z,14.63
2019-04-16T22:29:19.619Z,16.00
2019-04-16T22:31:45.796Z,13.90
2019-04-16T22:34:12.022Z,17.92
2019-04-16T22:36:38.201Z,14.35
2019-04-16T22:39:06.871Z,12.70
2019-04-16T22:41:36.820Z,15.63
2019-04-16T22:44:16.827Z,14.65
2019-04-16T22:46:45.901Z,16.40
2019-04-16T22:49:12.087Z,17.15
2019-04-16T22:51:39.838Z,13.10
2019-04-16T22:54:06.288Z,19.45
2019-04-16T22:56:34.401Z,20.02
2019-04-16T22:59:00.552Z,16.00
2019-04-16T23:01:28.636Z,17.12
2019-04-16T23:03:54.785Z,17.07
2019-04-16T23:06:21.045Z,18.00
2019-04-16T23:08:47.207Z,15.98
2019-04-16T23:11:13.362Z,15.38
2019-04-16T23:13:39.538Z,15.53
2019-04-16T23:16:05.704Z,20.30
2019-04-16T23:18:31.871Z,19.45
2019-04-16T23:20:58.027Z,21.10
2019-04-16T23:23:24.202Z,20.82
2019-04-16T23:25:50.385Z,17.23
2019-04-16T23:28:16.569Z,18.90
2019-04-16T23:30:42.723Z,19.87
2019-04-16T23:33:08.936Z,23.30
2019-04-16T23:35:35.140Z,16.45
2019-04-16T23:38:01.327Z,16.23
2019-04-16T23:40:27.883Z,17.23
2019-04-16T23:42:55.932Z,14.87
2019-04-16T23:45:24.011Z,17.42
2019-04-16T23:48:08.259Z,16.25
2019-04-16T23:50:45.373Z,18.37
2019-04-16T23:53:12.091Z,15.05
2019-04-16T23:55:40.162Z,16.42
2019-04-16T23:58:13.831Z,15.85
